EGPH

Edinburgh Airport

Edinburgh, United Kingdom
TAF EGPH 161100Z 1612/1712 23012KT 9999 SCT035 PROB40 TEMPO 1612/1615 24015G25KT TEMPO 1620/1703 BKN012 PROB40 TEMPO 1622/1706 19015G25KT TEMPO 1709/1712 20015G25KT
Issued Valid From Valid To
Feb-16 @ 11:00 UTC
(60 minutes ago)
Feb-16 @ 12:00 UTC
(a few seconds ago)
Feb-17 @ 12:00 UTC
(in 24 hours)
Feb-16 @ 12:00 to Feb-17 @ 12:00
TAF EGPH 161100Z 1612/1712 23012KT 9999 SCT035
Wind Visibility Clouds
230° at 12 knots 10,000+ meters
  • Scattered at 3,500' AGL
Temporary  (Probability 40%) Feb-16 @ 12:00 to Feb-16 @ 15:00
PROB40 TEMPO 1612/1615 24015G25KT
Wind
240° at 15 knots
 Gusting to 25 knots
Temporary Feb-16 @ 20:00 to Feb-17 @ 03:00
TEMPO 1620/1703 BKN012
Clouds
  • Broken at 1,200' AGL
Temporary  (Probability 40%) Feb-16 @ 22:00 to Feb-17 @ 06:00
PROB40 TEMPO 1622/1706 19015G25KT
Wind
190° at 15 knots
 Gusting to 25 knots
Temporary Feb-17 @ 09:00 to Feb-17 @ 12:00
TEMPO 1709/1712 20015G25KT
Wind
200° at 15 knots
 Gusting to 25 knots
TAF EGPH 161100Z 1612/1712 23012KT 9999 SCT035 PROB40 TEMPO 1612/1615 24015G25KT TEMPO 1620/1703 BKN012 PROB40 TEMPO 1622/1706 19015G25KT TEMPO 1709/1712 20015G25KT
Issued Feb-16 @ 11:00 UTC
(60 minutes ago)
Valid From Feb-16 @ 12:00 UTC
(a few seconds ago)
Valid To Feb-17 @ 12:00 UTC
(in 24 hours)
Feb-16 @ 12:00 - Feb-17 @ 12:00
Wind Visibility
230° at 12 knots 10,000+ meters
Clouds
  • Scattered at 3,500' AGL
Probability 40% Temporary Feb-16 @ 12:00 - Feb-16 @ 15:00
Wind
240° at 15 knots
 Gusting to 25 knots
Temporary Feb-16 @ 20:00 - Feb-17 @ 03:00
Clouds
  • Broken at 1,200' AGL
Probability 40% Temporary Feb-16 @ 22:00 - Feb-17 @ 06:00
Wind
190° at 15 knots
 Gusting to 25 knots
Temporary Feb-17 @ 09:00 - Feb-17 @ 12:00
Wind
200° at 15 knots
 Gusting to 25 knots